sensor_id;sensor_type;location;lat;lon;timestamp;pressure;altitude;pressure_sealevel;temperature;humidity
56681;BME280;42558;52.388;13.390;2023-03-18T00:02:19;100616.79;;;7.02;61.70
56681;BME280;42558;52.388;13.390;2023-03-18T00:04:50;100620.23;;;6.94;62.16
56681;BME280;42558;52.388;13.390;2023-03-18T00:07:21;100614.78;;;6.93;61.98
56681;BME280;42558;52.388;13.390;2023-03-18T00:09:51;100617.59;;;6.93;62.05
56681;BME280;42558;52.388;13.390;2023-03-18T00:12:21;100624.14;;;6.83;63.24
56681;BME280;42558;52.388;13.390;2023-03-18T00:14:52;100625.40;;;6.77;63.06
56681;BME280;42558;52.388;13.390;2023-03-18T00:17:22;100623.36;;;6.80;62.78
56681;BME280;42558;52.388;13.390;2023-03-18T00:19:52;100624.16;;;6.76;62.92
56681;BME280;42558;52.388;13.390;2023-03-18T00:22:22;100620.17;;;6.78;62.48
56681;BME280;42558;52.388;13.390;2023-03-18T00:24:53;100618.30;;;6.80;62.41
56681;BME280;42558;52.388;13.390;2023-03-18T00:27:23;100619.35;;;6.80;62.47
56681;BME280;42558;52.388;13.390;2023-03-18T00:29:53;100615.72;;;6.74;63.19
56681;BME280;42558;52.388;13.390;2023-03-18T00:32:26;100614.96;;;6.66;63.66
56681;BME280;42558;52.388;13.390;2023-03-18T00:34:55;100623.01;;;6.66;63.33
56681;BME280;42558;52.388;13.390;2023-03-18T00:37:24;100618.05;;;6.70;63.09
56681;BME280;42558;52.388;13.390;2023-03-18T00:40:11;100614.16;;;6.68;63.41
56681;BME280;42558;52.388;13.390;2023-03-18T00:42:46;100616.25;;;6.62;63.29
56681;BME280;42558;52.388;13.390;2023-03-18T00:45:26;100615.88;;;6.61;63.40
56681;BME280;42558;52.388;13.390;2023-03-18T00:47:56;100612.48;;;6.52;64.29
56681;BME280;42558;52.388;13.390;2023-03-18T00:50:26;100616.22;;;6.48;64.38
56681;BME280;42558;52.388;13.390;2023-03-18T00:52:57;100606.41;;;6.48;64.18
56681;BME280;42558;52.388;13.390;2023-03-18T00:55:28;100616.66;;;6.52;63.55
56681;BME280;42558;52.388;13.390;2023-03-18T00:57:58;100609.02;;;6.47;63.95
56681;BME280;42558;52.388;13.390;2023-03-18T01:00:28;100614.68;;;6.43;64.08
56681;BME280;42558;52.388;13.390;2023-03-18T01:02:58;100611.48;;;6.48;63.91
56681;BME280;42558;52.388;13.390;2023-03-18T01:05:29;100613.39;;;6.48;63.58
56681;BME280;42558;52.388;13.390;2023-03-18T01:08:00;100612.28;;;6.39;64.09
56681;BME280;42558;52.388;13.390;2023-03-18T01:10:32;100610.50;;;6.32;64.40
56681;BME280;42558;52.388;13.390;2023-03-18T01:13:03;100608.48;;;6.28;64.53
56681;BME280;42558;52.388;13.390;2023-03-18T01:15:33;100607.33;;;6.23;64.67
56681;BME280;42558;52.388;13.390;2023-03-18T01:18:03;100613.29;;;6.19;65.15
56681;BME280;42558;52.388;13.390;2023-03-18T01:20:33;100610.02;;;6.20;64.80
56681;BME280;42558;52.388;13.390;2023-03-18T01:23:05;100605.50;;;6.21;64.72
56681;BME280;42558;52.388;13.390;2023-03-18T01:25:37;100609.27;;;6.18;65.25
56681;BME280;42558;52.388;13.390;2023-03-18T01:28:08;100610.79;;;6.10;65.49
56681;BME280;42558;52.388;13.390;2023-03-18T01:30:39;100605.71;;;6.10;65.62
56681;BME280;42558;52.388;13.390;2023-03-18T01:33:09;100607.02;;;6.13;64.95
56681;BME280;42558;52.388;13.390;2023-03-18T01:35:41;100601.02;;;6.10;65.54
56681;BME280;42558;52.388;13.390;2023-03-18T01:38:11;100598.30;;;6.08;65.57
56681;BME280;42558;52.388;13.390;2023-03-18T01:40:41;100599.14;;;6.06;65.53
56681;BME280;42558;52.388;13.390;2023-03-18T01:43:16;100593.59;;;6.07;65.39
56681;BME280;42558;52.388;13.390;2023-03-18T01:45:51;100590.58;;;6.06;65.74
56681;BME280;42558;52.388;13.390;2023-03-18T01:48:26;100591.54;;;6.03;65.63
56681;BME280;42558;52.388;13.390;2023-03-18T01:51:06;100597.52;;;6.04;65.38
56681;BME280;42558;52.388;13.390;2023-03-18T01:53:43;100599.83;;;6.06;65.90
56681;BME280;42558;52.388;13.390;2023-03-18T01:56:16;100603.75;;;6.03;65.87
56681;BME280;42558;52.388;13.390;2023-03-18T01:58:53;100610.30;;;5.94;67.43
56681;BME280;42558;52.388;13.390;2023-03-18T02:04:54;100602.11;;;6.07;65.85
56681;BME280;42558;52.388;13.390;2023-03-18T02:07:30;100602.80;;;6.12;65.25
56681;BME280;42558;52.388;13.390;2023-03-18T02:10:02;100607.06;;;6.27;64.27
56681;BME280;42558;52.388;13.390;2023-03-18T02:12:35;100605.32;;;6.33;63.56
56681;BME280;42558;52.388;13.390;2023-03-18T02:15:10;100599.89;;;6.33;63.40
56681;BME280;42558;52.388;13.390;2023-03-18T02:17:48;100597.87;;;6.29;64.24
56681;BME280;42558;52.388;13.390;2023-03-18T02:23:50;100602.17;;;6.34;63.71
56681;BME280;42558;52.388;13.390;2023-03-18T02:26:38;100604.61;;;6.39;63.04
56681;BME280;42558;52.388;13.390;2023-03-18T02:29:15;100600.31;;;6.42;63.04
56681;BME280;42558;52.388;13.390;2023-03-18T02:31:48;100603.94;;;6.34;63.62
56681;BME280;42558;52.388;13.390;2023-03-18T02:34:23;100600.39;;;6.25;63.99
56681;BME280;42558;52.388;13.390;2023-03-18T02:36:54;100599.02;;;6.26;63.82
56681;BME280;42558;52.388;13.390;2023-03-18T02:39:25;100594.76;;;6.23;64.28
56681;BME280;42558;52.388;13.390;2023-03-18T02:41:58;100596.54;;;6.25;63.85
56681;BME280;42558;52.388;13.390;2023-03-18T02:44:30;100592.89;;;6.26;63.85
56681;BME280;42558;52.388;13.390;2023-03-18T02:47:08;100590.11;;;6.26;63.71
56681;BME280;42558;52.388;13.390;2023-03-18T02:49:40;100588.65;;;6.30;63.76
56681;BME280;42558;52.388;13.390;2023-03-18T02:52:10;100587.59;;;6.30;63.89
56681;BME280;42558;52.388;13.390;2023-03-18T02:54:40;100590.11;;;6.26;64.30
56681;BME280;42558;52.388;13.390;2023-03-18T02:57:10;100591.84;;;6.26;64.13
56681;BME280;42558;52.388;13.390;2023-03-18T02:59:40;100591.14;;;6.25;64.29
56681;BME280;42558;52.388;13.390;2023-03-18T03:02:10;100586.19;;;6.23;64.38
56681;BME280;42558;52.388;13.390;2023-03-18T03:04:40;100595.42;;;6.22;64.40
56681;BME280;42558;52.388;13.390;2023-03-18T03:07:12;100589.43;;;6.20;64.13
56681;BME280;42558;52.388;13.390;2023-03-18T03:09:42;100589.52;;;6.23;63.93
56681;BME280;42558;52.388;13.390;2023-03-18T03:12:17;100590.13;;;6.27;63.57
56681;BME280;42558;52.388;13.390;2023-03-18T03:14:47;100596.41;;;6.27;63.95
56681;BME280;42558;52.388;13.390;2023-03-18T03:17:17;100589.67;;;6.22;64.16
56681;BME280;42558;52.388;13.390;2023-03-18T03:19:45;100595.41;;;6.22;64.53
56681;BME280;42558;52.388;13.390;2023-03-18T03:22:14;100594.59;;;6.30;63.72
56681;BME280;42558;52.388;13.390;2023-03-18T03:24:45;100597.13;;;6.28;63.58
56681;BME280;42558;52.388;13.390;2023-03-18T03:27:14;100597.30;;;6.35;63.04
56681;BME280;42558;52.388;13.390;2023-03-18T03:29:44;100601.29;;;6.26;63.69
56681;BME280;42558;52.388;13.390;2023-03-18T03:32:14;100602.98;;;6.18;64.19
56681;BME280;42558;52.388;13.390;2023-03-18T03:34:44;100607.17;;;6.12;65.60
56681;BME280;42558;52.388;13.390;2023-03-18T03:37:15;100611.30;;;6.10;64.90
56681;BME280;42558;52.388;13.390;2023-03-18T03:39:45;100611.80;;;6.09;64.45
56681;BME280;42558;52.388;13.390;2023-03-18T03:42:15;100610.21;;;6.03;65.18
56681;BME280;42558;52.388;13.390;2023-03-18T03:44:45;100610.47;;;6.00;65.59
56681;BME280;42558;52.388;13.390;2023-03-18T03:47:16;100605.41;;;6.00;65.44
56681;BME280;42558;52.388;13.390;2023-03-18T03:49:46;100602.94;;;6.11;64.64
56681;BME280;42558;52.388;13.390;2023-03-18T03:52:16;100599.61;;;6.16;64.02
56681;BME280;42558;52.388;13.390;2023-03-18T03:54:49;100599.30;;;6.18;64.22
56681;BME280;42558;52.388;13.390;2023-03-18T03:57:19;100601.48;;;6.21;63.93
56681;BME280;42558;52.388;13.390;2023-03-18T03:59:50;100601.27;;;6.20;63.92
56681;BME280;42558;52.388;13.390;2023-03-18T04:02:20;100594.23;;;6.23;63.59
56681;BME280;42558;52.388;13.390;2023-03-18T04:04:53;100598.05;;;6.30;62.87
56681;BME280;42558;52.388;13.390;2023-03-18T04:07:23;100603.73;;;6.39;62.24
56681;BME280;42558;52.388;13.390;2023-03-18T04:09:53;100606.04;;;6.41;62.40
56681;BME280;42558;52.388;13.390;2023-03-18T04:12:24;100601.29;;;6.51;61.74
56681;BME280;42558;52.388;13.390;2023-03-18T04:14:54;100610.71;;;6.51;61.57
56681;BME280;42558;52.388;13.390;2023-03-18T04:17:24;100614.20;;;6.44;62.02
56681;BME280;42558;52.388;13.390;2023-03-18T04:19:53;100617.38;;;6.40;61.77
56681;BME280;42558;52.388;13.390;2023-03-18T04:22:21;100617.92;;;6.35;62.09
56681;BME280;42558;52.388;13.390;2023-03-18T04:24:49;100616.77;;;6.30;62.12
56681;BME280;42558;52.388;13.390;2023-03-18T04:27:18;100618.81;;;6.35;61.85
56681;BME280;42558;52.388;13.390;2023-03-18T04:29:47;100621.67;;;6.44;61.44
56681;BME280;42558;52.388;13.390;2023-03-18T04:32:15;100618.59;;;6.52;61.04
56681;BME280;42558;52.388;13.390;2023-03-18T04:34:43;100615.66;;;6.54;60.88
56681;BME280;42558;52.388;13.390;2023-03-18T04:37:12;100615.33;;;6.80;59.63
56681;BME280;42558;52.388;13.390;2023-03-18T04:39:41;100621.75;;;6.72;60.00
56681;BME280;42558;52.388;13.390;2023-03-18T04:42:10;100622.52;;;6.55;60.68
56681;BME280;42558;52.388;13.390;2023-03-18T04:44:40;100627.09;;;6.56;60.55
56681;BME280;42558;52.388;13.390;2023-03-18T04:47:09;100634.00;;;6.53;60.84
56681;BME280;42558;52.388;13.390;2023-03-18T04:49:37;100634.23;;;6.56;60.50
56681;BME280;42558;52.388;13.390;2023-03-18T04:52:07;100634.19;;;6.54;60.94
56681;BME280;42558;52.388;13.390;2023-03-18T04:54:37;100629.84;;;6.48;61.06
56681;BME280;42558;52.388;13.390;2023-03-18T04:57:08;100635.45;;;6.49;61.06
56681;BME280;42558;52.388;13.390;2023-03-18T04:59:38;100632.81;;;6.42;61.34
56681;BME280;42558;52.388;13.390;2023-03-18T05:02:08;100633.30;;;6.35;61.57
56681;BME280;42558;52.388;13.390;2023-03-18T05:04:37;100634.52;;;6.23;62.45
56681;BME280;42558;52.388;13.390;2023-03-18T05:07:04;100632.96;;;6.11;62.69
56681;BME280;42558;52.388;13.390;2023-03-18T05:09:33;100632.96;;;6.17;62.83
56681;BME280;42558;52.388;13.390;2023-03-18T05:12:01;100627.63;;;6.19;62.39
56681;BME280;42558;52.388;13.390;2023-03-18T05:14:30;100628.77;;;6.29;62.02
56681;BME280;42558;52.388;13.390;2023-03-18T05:16:58;100635.52;;;6.21;62.32
56681;BME280;42558;52.388;13.390;2023-03-18T05:19:27;100634.42;;;6.07;62.84
56681;BME280;42558;52.388;13.390;2023-03-18T05:21:55;100635.98;;;6.01;63.18
56681;BME280;42558;52.388;13.390;2023-03-18T05:24:23;100641.70;;;5.94;63.85
56681;BME280;42558;52.388;13.390;2023-03-18T05:26:52;100642.52;;;5.82;64.27
56681;BME280;42558;52.388;13.390;2023-03-18T05:29:20;100643.66;;;5.74;64.39
56681;BME280;42558;52.388;13.390;2023-03-18T05:31:49;100643.33;;;5.74;64.59
56681;BME280;42558;52.388;13.390;2023-03-18T05:34:17;100642.75;;;5.72;64.58
56681;BME280;42558;52.388;13.390;2023-03-18T05:36:46;100641.92;;;5.63;65.46
56681;BME280;42558;52.388;13.390;2023-03-18T05:39:14;100640.79;;;5.49;66.46
56681;BME280;42558;52.388;13.390;2023-03-18T05:41:42;100646.23;;;5.39;67.34
56681;BME280;42558;52.388;13.390;2023-03-18T05:44:11;100654.84;;;5.26;68.37
56681;BME280;42558;52.388;13.390;2023-03-18T05:46:39;100657.38;;;5.13;69.03
56681;BME280;42558;52.388;13.390;2023-03-18T05:49:08;100662.52;;;5.05;69.81
56681;BME280;42558;52.388;13.390;2023-03-18T05:51:36;100662.97;;;4.98;70.06
56681;BME280;42558;52.388;13.390;2023-03-18T05:54:04;100663.87;;;4.94;70.64
56681;BME280;42558;52.388;13.390;2023-03-18T05:56:33;100665.38;;;4.87;71.13
56681;BME280;42558;52.388;13.390;2023-03-18T05:59:02;100662.98;;;4.98;70.74
56681;BME280;42558;52.388;13.390;2023-03-18T06:01:31;100661.93;;;5.03;70.64
56681;BME280;42558;52.388;13.390;2023-03-18T06:03:59;100663.27;;;5.01;70.97
56681;BME280;42558;52.388;13.390;2023-03-18T06:06:27;100659.41;;;5.16;69.95
56681;BME280;42558;52.388;13.390;2023-03-18T06:08:55;100650.49;;;5.53;68.53
56681;BME280;42558;52.388;13.390;2023-03-18T06:11:24;100649.94;;;5.57;68.18
56681;BME280;42558;52.388;13.390;2023-03-18T06:13:52;100653.23;;;5.51;68.54
56681;BME280;42558;52.388;13.390;2023-03-18T06:16:22;100655.41;;;5.54;68.34
56681;BME280;42558;52.388;13.390;2023-03-18T06:18:49;100658.23;;;5.65;67.85
56681;BME280;42558;52.388;13.390;2023-03-18T06:21:18;100653.51;;;5.76;67.23
56681;BME280;42558;52.388;13.390;2023-03-18T06:23:46;100653.42;;;5.80;67.28
56681;BME280;42558;52.388;13.390;2023-03-18T06:26:14;100659.52;;;5.95;66.34
56681;BME280;42558;52.388;13.390;2023-03-18T06:28:43;100656.80;;;6.03;66.13
56681;BME280;42558;52.388;13.390;2023-03-18T06:31:13;100665.73;;;6.04;66.27
56681;BME280;42558;52.388;13.390;2023-03-18T06:33:42;100672.55;;;6.04;66.46
56681;BME280;42558;52.388;13.390;2023-03-18T06:36:11;100677.07;;;6.09;66.17
56681;BME280;42558;52.388;13.390;2023-03-18T06:38:38;100673.55;;;6.14;65.86
56681;BME280;42558;52.388;13.390;2023-03-18T06:41:07;100667.46;;;6.20;65.86
56681;BME280;42558;52.388;13.390;2023-03-18T06:43:36;100670.62;;;6.21;66.38
56681;BME280;42558;52.388;13.390;2023-03-18T06:46:04;100670.22;;;6.14;66.79
56681;BME280;42558;52.388;13.390;2023-03-18T06:48:32;100670.02;;;6.13;66.81
56681;BME280;42558;52.388;13.390;2023-03-18T06:51:01;100673.27;;;6.16;67.22
56681;BME280;42558;52.388;13.390;2023-03-18T06:53:29;100675.56;;;6.17;67.48
56681;BME280;42558;52.388;13.390;2023-03-18T06:55:58;100676.34;;;6.20;67.32
56681;BME280;42558;52.388;13.390;2023-03-18T06:58:26;100677.06;;;6.21;68.05
56681;BME280;42558;52.388;13.390;2023-03-18T07:00:55;100681.02;;;6.25;67.28
56681;BME280;42558;52.388;13.390;2023-03-18T07:03:23;100694.47;;;6.37;66.94
56681;BME280;42558;52.388;13.390;2023-03-18T07:05:54;100698.13;;;6.54;66.07
56681;BME280;42558;52.388;13.390;2023-03-18T07:08:23;100699.64;;;6.65;65.45
56681;BME280;42558;52.388;13.390;2023-03-18T07:10:52;100702.64;;;6.78;65.60
56681;BME280;42558;52.388;13.390;2023-03-18T07:13:25;100705.41;;;6.84;65.35
56681;BME280;42558;52.388;13.390;2023-03-18T07:15:55;100708.39;;;6.96;64.66
56681;BME280;42558;52.388;13.390;2023-03-18T07:18:26;100709.34;;;7.13;64.42
56681;BME280;42558;52.388;13.390;2023-03-18T07:20:56;100717.04;;;7.25;64.50
56681;BME280;42558;52.388;13.390;2023-03-18T07:23:26;100718.69;;;7.35;64.97
56681;BME280;42558;52.388;13.390;2023-03-18T07:25:56;100719.53;;;7.41;66.03
56681;BME280;42558;52.388;13.390;2023-03-18T07:28:26;100713.88;;;7.46;64.68
56681;BME280;42558;52.388;13.390;2023-03-18T07:30:56;100713.96;;;7.49;65.48
56681;BME280;42558;52.388;13.390;2023-03-18T07:33:26;100712.23;;;7.49;65.17
56681;BME280;42558;52.388;13.390;2023-03-18T07:35:56;100719.89;;;7.48;64.73
56681;BME280;42558;52.388;13.390;2023-03-18T07:38:26;100718.57;;;7.45;64.41
56681;BME280;42558;52.388;13.390;2023-03-18T07:40:56;100715.27;;;7.59;64.89
56681;BME280;42558;52.388;13.390;2023-03-18T07:43:26;100716.79;;;7.57;64.18
56681;BME280;42558;52.388;13.390;2023-03-18T07:45:56;100725.47;;;7.61;63.70
56681;BME280;42558;52.388;13.390;2023-03-18T07:48:27;100733.38;;;7.70;63.70
56681;BME280;42558;52.388;13.390;2023-03-18T07:50:57;100738.30;;;7.78;63.51
56681;BME280;42558;52.388;13.390;2023-03-18T07:53:28;100744.54;;;7.90;63.76
56681;BME280;42558;52.388;13.390;2023-03-18T07:55:57;100743.16;;;8.05;63.81
56681;BME280;42558;52.388;13.390;2023-03-18T07:58:27;100742.38;;;8.47;63.33
56681;BME280;42558;52.388;13.390;2023-03-18T08:00:58;100749.55;;;8.39;61.99
56681;BME280;42558;52.388;13.390;2023-03-18T08:03:28;100747.64;;;8.47;62.41
56681;BME280;42558;52.388;13.390;2023-03-18T08:05:58;100747.15;;;8.49;62.04
56681;BME280;42558;52.388;13.390;2023-03-18T08:08:28;100748.02;;;8.64;62.30
56681;BME280;42558;52.388;13.390;2023-03-18T08:10:58;100748.30;;;8.87;61.18
56681;BME280;42558;52.388;13.390;2023-03-18T08:13:29;100750.55;;;9.21;60.76
56681;BME280;42558;52.388;13.390;2023-03-18T08:15:58;100750.50;;;9.47;59.21
56681;BME280;42558;52.388;13.390;2023-03-18T08:18:28;100746.44;;;9.17;59.91
56681;BME280;42558;52.388;13.390;2023-03-18T08:20:59;100746.61;;;8.98;60.78
56681;BME280;42558;52.388;13.390;2023-03-18T08:23:29;100749.02;;;9.63;60.07
56681;BME280;42558;52.388;13.390;2023-03-18T08:25:59;100745.23;;;9.78;59.10
56681;BME280;42558;52.388;13.390;2023-03-18T08:28:29;100749.40;;;9.85;59.12
56681;BME280;42558;52.388;13.390;2023-03-18T08:30:59;100745.40;;;9.88;58.85
56681;BME280;42558;52.388;13.390;2023-03-18T08:33:30;100748.34;;;9.96;59.61
56681;BME280;42558;52.388;13.390;2023-03-18T08:36:00;100749.06;;;9.97;58.10
56681;BME280;42558;52.388;13.390;2023-03-18T08:38:30;100748.39;;;10.46;58.21
56681;BME280;42558;52.388;13.390;2023-03-18T08:41:00;100751.98;;;11.23;57.76
56681;BME280;42558;52.388;13.390;2023-03-18T08:43:30;100748.18;;;11.29;56.01
56681;BME280;42558;52.388;13.390;2023-03-18T08:46:00;100748.88;;;11.11;56.70
56681;BME280;42558;52.388;13.390;2023-03-18T08:48:29;100748.90;;;11.30;57.21
56681;BME280;42558;52.388;13.390;2023-03-18T08:51:05;100734.58;;;11.08;57.13
56681;BME280;42558;52.388;13.390;2023-03-18T08:53:37;100726.30;;;11.07;58.03
56681;BME280;42558;52.388;13.390;2023-03-18T08:56:05;100727.70;;;10.75;57.88
56681;BME280;42558;52.388;13.390;2023-03-18T08:58:34;100734.67;;;10.86;57.94
56681;BME280;42558;52.388;13.390;2023-03-18T09:01:01;100742.76;;;10.99;57.75
56681;BME280;42558;52.388;13.390;2023-03-18T09:03:33;100752.84;;;10.89;58.63
56681;BME280;42558;52.388;13.390;2023-03-18T09:06:01;100754.52;;;11.13;57.14
56681;BME280;42558;52.388;13.390;2023-03-18T09:08:30;100760.83;;;11.26;57.54
56681;BME280;42558;52.388;13.390;2023-03-18T09:10:59;100764.98;;;11.05;57.85
56681;BME280;42558;52.388;13.390;2023-03-18T09:13:26;100765.44;;;10.85;59.58
56681;BME280;42558;52.388;13.390;2023-03-18T09:15:55;100764.02;;;11.28;57.97
56681;BME280;42558;52.388;13.390;2023-03-18T09:18:23;100759.33;;;11.70;57.05
56681;BME280;42558;52.388;13.390;2023-03-18T09:20:52;100753.49;;;12.34;55.74
56681;BME280;42558;52.388;13.390;2023-03-18T09:23:20;100747.00;;;12.12;55.06
56681;BME280;42558;52.388;13.390;2023-03-18T09:25:49;100752.02;;;12.25;55.55
56681;BME280;42558;52.388;13.390;2023-03-18T09:28:17;100755.30;;;12.14;55.53
56681;BME280;42558;52.388;13.390;2023-03-18T09:30:46;100765.94;;;12.00;55.72
56681;BME280;42558;52.388;13.390;2023-03-18T09:33:14;100769.94;;;11.93;56.70
56681;BME280;42558;52.388;13.390;2023-03-18T09:35:42;100768.39;;;12.48;56.43
56681;BME280;42558;52.388;13.390;2023-03-18T09:38:17;100768.77;;;12.53;54.95
56681;BME280;42558;52.388;13.390;2023-03-18T09:49:29;100773.28;;;13.13;54.13
56681;BME280;42558;52.388;13.390;2023-03-18T09:55:08;100762.61;;;13.43;54.07
56681;BME280;42558;52.388;13.390;2023-03-18T09:57:45;100757.52;;;13.76;53.72
56681;BME280;42558;52.388;13.390;2023-03-18T10:00:36;100749.70;;;14.48;52.15
56681;BME280;42558;52.388;13.390;2023-03-18T10:03:33;100752.00;;;14.47;52.06
56681;BME280;42558;52.388;13.390;2023-03-18T10:06:22;100749.23;;;14.86;51.80
56681;BME280;42558;52.388;13.390;2023-03-18T10:09:30;100753.23;;;14.44;52.02
56681;BME280;42558;52.388;13.390;2023-03-18T10:15:11;100756.08;;;14.35;51.97
56681;BME280;42558;52.388;13.390;2023-03-18T10:20:50;100750.24;;;15.29;51.43
56681;BME280;42558;52.388;13.390;2023-03-18T10:23:39;100755.37;;;15.00;52.15
56681;BME280;42558;52.388;13.390;2023-03-18T10:26:35;100753.83;;;15.53;51.38
56681;BME280;42558;52.388;13.390;2023-03-18T10:29:44;100751.14;;;15.83;49.74
56681;BME280;42558;52.388;13.390;2023-03-18T10:35:28;100757.21;;;15.80;51.03
56681;BME280;42558;52.388;13.390;2023-03-18T10:38:23;100762.58;;;15.43;51.03
56681;BME280;42558;52.388;13.390;2023-03-18T10:40:54;100758.02;;;15.34;52.26
56681;BME280;42558;52.388;13.390;2023-03-18T10:43:30;100755.73;;;15.33;51.93
56681;BME280;42558;52.388;13.390;2023-03-18T10:46:03;100759.59;;;15.05;52.53
56681;BME280;42558;52.388;13.390;2023-03-18T10:48:42;100758.45;;;15.22;52.02
56681;BME280;42558;52.388;13.390;2023-03-18T10:51:33;100757.41;;;15.75;51.71
56681;BME280;42558;52.388;13.390;2023-03-18T10:54:24;100758.45;;;15.99;51.27
56681;BME280;42558;52.388;13.390;2023-03-18T10:56:55;100762.78;;;15.69;51.09
56681;BME280;42558;52.388;13.390;2023-03-18T10:59:27;100771.02;;;15.54;52.19
56681;BME280;42558;52.388;13.390;2023-03-18T11:02:03;100770.57;;;15.69;52.88
56681;BME280;42558;52.388;13.390;2023-03-18T11:04:44;100760.97;;;16.35;51.56
56681;BME280;42558;52.388;13.390;2023-03-18T11:07:21;100761.98;;;15.82;51.96
56681;BME280;42558;52.388;13.390;2023-03-18T11:10:16;100761.30;;;15.78;52.11
56681;BME280;42558;52.388;13.390;2023-03-18T11:12:46;100763.42;;;15.75;51.62
56681;BME280;42558;52.388;13.390;2023-03-18T11:15:19;100759.27;;;15.63;52.51
56681;BME280;42558;52.388;13.390;2023-03-18T11:17:50;100758.61;;;15.25;53.57
56681;BME280;42558;52.388;13.390;2023-03-18T11:20:34;100752.31;;;15.72;52.53
56681;BME280;42558;52.388;13.390;2023-03-18T11:23:34;100752.86;;;15.37;53.12
56681;BME280;42558;52.388;13.390;2023-03-18T11:26:28;100754.23;;;15.12;54.65
56681;BME280;42558;52.388;13.390;2023-03-18T11:29:09;100751.84;;;15.60;54.24
56681;BME280;42558;52.388;13.390;2023-03-18T11:31:55;100757.03;;;15.19;53.86
56681;BME280;42558;52.388;13.390;2023-03-18T11:34:31;100754.59;;;15.47;53.58
56681;BME280;42558;52.388;13.390;2023-03-18T11:37:04;100761.56;;;15.36;54.07
56681;BME280;42558;52.388;13.390;2023-03-18T11:39:38;100761.91;;;15.36;53.81
56681;BME280;42558;52.388;13.390;2023-03-18T11:42:21;100767.75;;;15.36;54.20
56681;BME280;42558;52.388;13.390;2023-03-18T11:45:00;100762.41;;;15.39;54.30
56681;BME280;42558;52.388;13.390;2023-03-18T11:47:33;100763.66;;;15.40;54.39
56681;BME280;42558;52.388;13.390;2023-03-18T11:50:17;100761.71;;;15.40;54.70
56681;BME280;42558;52.388;13.390;2023-03-18T11:53:12;100759.09;;;15.62;54.62
56681;BME280;42558;52.388;13.390;2023-03-18T11:55:55;100753.77;;;16.45;53.30
56681;BME280;42558;52.388;13.390;2023-03-18T11:59:00;100751.25;;;16.82;51.97
56681;BME280;42558;52.388;13.390;2023-03-18T12:10:39;100745.20;;;16.66;53.89
56681;BME280;42558;52.388;13.390;2023-03-18T12:13:46;100746.33;;;16.27;55.12
56681;BME280;42558;52.388;13.390;2023-03-18T12:16:40;100747.98;;;16.20;54.03
56681;BME280;42558;52.388;13.390;2023-03-18T12:19:27;100751.66;;;16.42;54.45
56681;BME280;42558;52.388;13.390;2023-03-18T12:22:56;100752.89;;;16.44;54.30
56681;BME280;42558;52.388;13.390;2023-03-18T12:25:06;100750.90;;;16.81;54.03
56681;BME280;42558;52.388;13.390;2023-03-18T12:39:35;100748.91;;;16.34;54.94
56681;BME280;42558;52.388;13.390;2023-03-18T12:42:17;100748.95;;;16.47;54.90
56681;BME280;42558;52.388;13.390;2023-03-18T12:44:59;100749.76;;;16.71;54.90
56681;BME280;42558;52.388;13.390;2023-03-18T12:47:52;100749.38;;;16.56;55.10
56681;BME280;42558;52.388;13.390;2023-03-18T12:50:37;100747.44;;;16.88;54.63
56681;BME280;42558;52.388;13.390;2023-03-18T12:53:23;100746.63;;;17.08;54.96
56681;BME280;42558;52.388;13.390;2023-03-18T12:55:58;100747.15;;;17.24;53.60
56681;BME280;42558;52.388;13.390;2023-03-18T12:58:37;100742.98;;;17.40;53.92
56681;BME280;42558;52.388;13.390;2023-03-18T13:01:19;100740.38;;;17.38;53.80
56681;BME280;42558;52.388;13.390;2023-03-18T13:04:06;100738.34;;;17.30;53.82
56681;BME280;42558;52.388;13.390;2023-03-18T13:06:48;100734.39;;;17.58;52.96
56681;BME280;42558;52.388;13.390;2023-03-18T13:09:39;100727.89;;;17.88;52.80
56681;BME280;42558;52.388;13.390;2023-03-18T13:12:37;100728.03;;;17.55;53.66
56681;BME280;42558;52.388;13.390;2023-03-18T13:15:22;100727.09;;;17.82;53.99
56681;BME280;42558;52.388;13.390;2023-03-18T13:17:58;100722.31;;;18.31;52.41
56681;BME280;42558;52.388;13.390;2023-03-18T13:20:38;100721.67;;;17.75;53.12
56681;BME280;42558;52.388;13.390;2023-03-18T13:44:58;100708.98;;;17.55;55.09
56681;BME280;42558;52.388;13.390;2023-03-18T13:47:36;100714.04;;;17.39;55.56
56681;BME280;42558;52.388;13.390;2023-03-18T13:52:48;100708.79;;;17.90;54.19
56681;BME280;42558;52.388;13.390;2023-03-18T13:55:45;100706.80;;;17.93;54.90
56681;BME280;42558;52.388;13.390;2023-03-18T14:16:23;100709.66;;;18.76;52.49
56681;BME280;42558;52.388;13.390;2023-03-18T14:21:46;100706.27;;;18.49;53.88
56681;BME280;42558;52.388;13.390;2023-03-18T14:27:09;100705.38;;;18.22;53.46
56681;BME280;42558;52.388;13.390;2023-03-18T14:29:46;100698.27;;;17.92;54.58
56681;BME280;42558;52.388;13.390;2023-03-18T14:39:00;100691.45;;;17.96;54.32
56681;BME280;42558;52.388;13.390;2023-03-18T14:41:33;100692.53;;;18.04;54.11
56681;BME280;42558;52.388;13.390;2023-03-18T14:44:17;100694.83;;;17.96;54.62
56681;BME280;42558;52.388;13.390;2023-03-18T14:46:59;100694.42;;;18.36;54.07
56681;BME280;42558;52.388;13.390;2023-03-18T14:49:49;100695.16;;;18.72;52.87
56681;BME280;42558;52.388;13.390;2023-03-18T14:52:40;100691.71;;;18.83;52.65
56681;BME280;42558;52.388;13.390;2023-03-18T14:55:33;100695.23;;;18.02;54.52
56681;BME280;42558;52.388;13.390;2023-03-18T14:58:04;100693.74;;;17.64;55.74
56681;BME280;42558;52.388;13.390;2023-03-18T15:00:35;100699.16;;;17.24;56.72
56681;BME280;42558;52.388;13.390;2023-03-18T15:03:13;100694.83;;;17.29;56.87